sensor_id;sensor_type;location;lat;lon;timestamp;pressure;altitude;pressure_sealevel;temperature;humidity
12879;BME280;20617;49.476;10.986;2023-06-10T00:00:38;97966.38;;;18.78;100.00
12879;BME280;20617;49.476;10.986;2023-06-10T00:02:44;97962.06;;;18.77;100.00
12879;BME280;20617;49.476;10.986;2023-06-10T00:04:49;97960.00;;;18.70;100.00
12879;BME280;20617;49.476;10.986;2023-06-10T00:06:54;97964.44;;;18.69;100.00
12879;BME280;20617;49.476;10.986;2023-06-10T00:08:59;97966.50;;;18.66;100.00
12879;BME280;20617;49.476;10.986;2023-06-10T00:11:06;97963.72;;;18.67;100.00
12879;BME280;20617;49.476;10.986;2023-06-10T00:13:14;97961.97;;;18.68;100.00
12879;BME280;20617;49.476;10.986;2023-06-10T00:15:19;97964.84;;;18.65;100.00
12879;BME280;20617;49.476;10.986;2023-06-10T00:17:24;97960.41;;;18.65;100.00
12879;BME280;20617;49.476;10.986;2023-06-10T00:19:31;97964.94;;;18.63;100.00
12879;BME280;20617;49.476;10.986;2023-06-10T00:21:37;97970.94;;;18.65;100.00
12879;BME280;20617;49.476;10.986;2023-06-10T00:23:42;97971.44;;;18.59;100.00
12879;BME280;20617;49.476;10.986;2023-06-10T00:25:47;97970.72;;;18.57;100.00
12879;BME280;20617;49.476;10.986;2023-06-10T00:27:52;97970.81;;;18.55;100.00
12879;BME280;20617;49.476;10.986;2023-06-10T00:29:59;97967.34;;;18.55;100.00
12879;BME280;20617;49.476;10.986;2023-06-10T00:32:07;97967.47;;;18.53;100.00
12879;BME280;20617;49.476;10.986;2023-06-10T00:34:12;97971.19;;;18.51;100.00
12879;BME280;20617;49.476;10.986;2023-06-10T00:36:17;97975.75;;;18.49;100.00
12879;BME280;20617;49.476;10.986;2023-06-10T00:38:22;97971.69;;;18.45;100.00
12879;BME280;20617;49.476;10.986;2023-06-10T00:40:27;97979.69;;;18.43;100.00
12879;BME280;20617;49.476;10.986;2023-06-10T00:42:32;97981.97;;;18.37;100.00
12879;BME280;20617;49.476;10.986;2023-06-10T00:44:37;97984.88;;;18.33;100.00
12879;BME280;20617;49.476;10.986;2023-06-10T00:46:47;97983.06;;;18.34;100.00
12879;BME280;20617;49.476;10.986;2023-06-10T00:48:53;97985.09;;;18.30;100.00
12879;BME280;20617;49.476;10.986;2023-06-10T00:50:59;97980.91;;;18.28;100.00
12879;BME280;20617;49.476;10.986;2023-06-10T00:53:05;97982.72;;;18.27;100.00
12879;BME280;20617;49.476;10.986;2023-06-10T00:55:10;97984.63;;;18.25;100.00
12879;BME280;20617;49.476;10.986;2023-06-10T00:57:16;97979.59;;;18.22;100.00
12879;BME280;20617;49.476;10.986;2023-06-10T00:59:22;97976.22;;;18.20;100.00
12879;BME280;20617;49.476;10.986;2023-06-10T01:01:28;97978.25;;;18.17;100.00
12879;BME280;20617;49.476;10.986;2023-06-10T01:03:39;97976.59;;;18.16;100.00
12879;BME280;20617;49.476;10.986;2023-06-10T01:05:48;97973.22;;;18.14;100.00
12879;BME280;20617;49.476;10.986;2023-06-10T01:08:01;97978.59;;;18.12;100.00
12879;BME280;20617;49.476;10.986;2023-06-10T01:10:11;97977.91;;;18.10;100.00
12879;BME280;20617;49.476;10.986;2023-06-10T01:12:26;97978.50;;;18.02;100.00
12879;BME280;20617;49.476;10.986;2023-06-10T01:14:31;97972.38;;;18.02;100.00
12879;BME280;20617;49.476;10.986;2023-06-10T01:16:36;97979.78;;;17.97;100.00
12879;BME280;20617;49.476;10.986;2023-06-10T01:18:47;97977.16;;;17.97;100.00
12879;BME280;20617;49.476;10.986;2023-06-10T01:20:52;97983.88;;;17.90;100.00
12879;BME280;20617;49.476;10.986;2023-06-10T01:23:01;97981.94;;;17.92;100.00
12879;BME280;20617;49.476;10.986;2023-06-10T01:25:07;97980.16;;;17.92;100.00
12879;BME280;20617;49.476;10.986;2023-06-10T01:27:15;97979.06;;;17.95;100.00
12879;BME280;20617;49.476;10.986;2023-06-10T01:29:28;97980.03;;;17.94;100.00
12879;BME280;20617;49.476;10.986;2023-06-10T01:31:39;97984.47;;;17.93;100.00
12879;BME280;20617;49.476;10.986;2023-06-10T01:33:51;97989.00;;;17.91;100.00
12879;BME280;20617;49.476;10.986;2023-06-10T01:35:59;97981.34;;;17.88;100.00
12879;BME280;20617;49.476;10.986;2023-06-10T01:38:10;97972.59;;;17.87;100.00
12879;BME280;20617;49.476;10.986;2023-06-10T01:40:17;97980.38;;;17.78;100.00
12879;BME280;20617;49.476;10.986;2023-06-10T01:42:22;97980.16;;;17.81;100.00
12879;BME280;20617;49.476;10.986;2023-06-10T01:44:28;97984.22;;;17.85;100.00
12879;BME280;20617;49.476;10.986;2023-06-10T01:46:33;97990.31;;;17.85;100.00
12879;BME280;20617;49.476;10.986;2023-06-10T01:48:38;97987.91;;;17.82;100.00
12879;BME280;20617;49.476;10.986;2023-06-10T01:50:43;97989.19;;;17.77;100.00
12879;BME280;20617;49.476;10.986;2023-06-10T01:52:48;97988.34;;;17.76;100.00
12879;BME280;20617;49.476;10.986;2023-06-10T01:54:56;97989.19;;;17.77;100.00
12879;BME280;20617;49.476;10.986;2023-06-10T01:57:01;97984.69;;;17.79;100.00
12879;BME280;20617;49.476;10.986;2023-06-10T01:59:08;97988.81;;;17.70;100.00
12879;BME280;20617;49.476;10.986;2023-06-10T02:01:13;97987.38;;;17.66;100.00
12879;BME280;20617;49.476;10.986;2023-06-10T02:03:19;98002.94;;;17.69;100.00
12879;BME280;20617;49.476;10.986;2023-06-10T02:05:24;98001.94;;;17.59;100.00
12879;BME280;20617;49.476;10.986;2023-06-10T02:07:29;97999.81;;;17.64;100.00
12879;BME280;20617;49.476;10.986;2023-06-10T02:09:34;97993.09;;;17.60;100.00
12879;BME280;20617;49.476;10.986;2023-06-10T02:11:42;97985.63;;;17.42;100.00
12879;BME280;20617;49.476;10.986;2023-06-10T02:13:47;97983.56;;;17.35;100.00
12879;BME280;20617;49.476;10.986;2023-06-10T02:15:52;97992.75;;;17.29;100.00
12879;BME280;20617;49.476;10.986;2023-06-10T02:18:04;97994.09;;;17.35;100.00
12879;BME280;20617;49.476;10.986;2023-06-10T02:20:09;97989.41;;;17.38;100.00
12879;BME280;20617;49.476;10.986;2023-06-10T02:22:15;97986.56;;;17.41;100.00
12879;BME280;20617;49.476;10.986;2023-06-10T02:24:20;97983.00;;;17.42;100.00
12879;BME280;20617;49.476;10.986;2023-06-10T02:26:25;97973.31;;;17.43;100.00
12879;BME280;20617;49.476;10.986;2023-06-10T02:28:37;97976.78;;;17.43;100.00
12879;BME280;20617;49.476;10.986;2023-06-10T02:30:42;97981.44;;;17.40;100.00
12879;BME280;20617;49.476;10.986;2023-06-10T02:32:49;97986.91;;;17.37;100.00
12879;BME280;20617;49.476;10.986;2023-06-10T02:34:55;97983.44;;;17.36;100.00
12879;BME280;20617;49.476;10.986;2023-06-10T02:37:03;97992.28;;;17.35;100.00
12879;BME280;20617;49.476;10.986;2023-06-10T02:39:09;97989.66;;;17.35;100.00
12879;BME280;20617;49.476;10.986;2023-06-10T02:41:16;97983.56;;;17.35;100.00
12879;BME280;20617;49.476;10.986;2023-06-10T02:43:25;97995.66;;;17.37;100.00
12879;BME280;20617;49.476;10.986;2023-06-10T02:45:33;97999.00;;;17.39;100.00
12879;BME280;20617;49.476;10.986;2023-06-10T02:47:39;98005.22;;;17.38;100.00
12879;BME280;20617;49.476;10.986;2023-06-10T02:49:46;98005.09;;;17.40;100.00
12879;BME280;20617;49.476;10.986;2023-06-10T02:51:51;98004.47;;;17.36;100.00
12879;BME280;20617;49.476;10.986;2023-06-10T02:53:59;98001.97;;;17.35;100.00
12879;BME280;20617;49.476;10.986;2023-06-10T02:56:04;98006.22;;;17.25;100.00
12879;BME280;20617;49.476;10.986;2023-06-10T02:58:10;98009.19;;;17.20;100.00
12879;BME280;20617;49.476;10.986;2023-06-10T03:00:16;98006.56;;;17.20;100.00
12879;BME280;20617;49.476;10.986;2023-06-10T03:02:25;98004.56;;;17.24;100.00
12879;BME280;20617;49.476;10.986;2023-06-10T03:04:31;98005.28;;;17.26;100.00
12879;BME280;20617;49.476;10.986;2023-06-10T03:06:42;97998.31;;;17.25;100.00
12879;BME280;20617;49.476;10.986;2023-06-10T03:08:53;98008.25;;;17.21;100.00
12879;BME280;20617;49.476;10.986;2023-06-10T03:10:58;98009.31;;;17.18;100.00
12879;BME280;20617;49.476;10.986;2023-06-10T03:13:05;98002.47;;;17.16;100.00
12879;BME280;20617;49.476;10.986;2023-06-10T03:15:12;98004.25;;;17.15;100.00
12879;BME280;20617;49.476;10.986;2023-06-10T03:17:18;98000.81;;;17.15;100.00
12879;BME280;20617;49.476;10.986;2023-06-10T03:19:26;97999.13;;;17.14;100.00
12879;BME280;20617;49.476;10.986;2023-06-10T03:21:32;98002.81;;;17.11;100.00
12879;BME280;20617;49.476;10.986;2023-06-10T03:23:40;97999.34;;;17.11;100.00
12879;BME280;20617;49.476;10.986;2023-06-10T03:25:45;98000.28;;;17.10;100.00
12879;BME280;20617;49.476;10.986;2023-06-10T03:27:53;97996.81;;;17.09;100.00
12879;BME280;20617;49.476;10.986;2023-06-10T03:29:58;97996.72;;;17.11;100.00
12879;BME280;20617;49.476;10.986;2023-06-10T03:32:04;97999.34;;;17.11;100.00
12879;BME280;20617;49.476;10.986;2023-06-10T03:34:12;98004.50;;;17.12;100.00
12879;BME280;20617;49.476;10.986;2023-06-10T03:36:19;98000.19;;;17.11;100.00
12879;BME280;20617;49.476;10.986;2023-06-10T03:38:25;98005.06;;;17.05;100.00
12879;BME280;20617;49.476;10.986;2023-06-10T03:40:30;98003.72;;;16.99;100.00
12879;BME280;20617;49.476;10.986;2023-06-10T03:42:36;98004.31;;;17.03;100.00
12879;BME280;20617;49.476;10.986;2023-06-10T03:44:43;97994.53;;;17.05;100.00
12879;BME280;20617;49.476;10.986;2023-06-10T03:46:48;98003.19;;;16.94;100.00
12879;BME280;20617;49.476;10.986;2023-06-10T03:48:54;98005.94;;;16.92;100.00
12879;BME280;20617;49.476;10.986;2023-06-10T03:50:59;98014.22;;;16.99;100.00
12879;BME280;20617;49.476;10.986;2023-06-10T03:53:07;98019.03;;;17.05;100.00
12879;BME280;20617;49.476;10.986;2023-06-10T03:55:16;98023.47;;;17.05;100.00
12879;BME280;20617;49.476;10.986;2023-06-10T03:57:24;98012.59;;;17.09;100.00
12879;BME280;20617;49.476;10.986;2023-06-10T03:59:29;98015.22;;;17.09;100.00
12879;BME280;20617;49.476;10.986;2023-06-10T04:01:34;98015.97;;;17.11;100.00
12879;BME280;20617;49.476;10.986;2023-06-10T04:03:43;98015.13;;;17.11;100.00
12879;BME280;20617;49.476;10.986;2023-06-10T04:05:50;98014.19;;;17.12;100.00
12879;BME280;20617;49.476;10.986;2023-06-10T04:07:55;98006.91;;;17.15;100.00
12879;BME280;20617;49.476;10.986;2023-06-10T04:10:05;98014.56;;;17.18;100.00
12879;BME280;20617;49.476;10.986;2023-06-10T04:12:10;98005.84;;;17.18;100.00
12879;BME280;20617;49.476;10.986;2023-06-10T04:14:16;98010.13;;;17.19;100.00
12879;BME280;20617;49.476;10.986;2023-06-10T04:16:22;98001.91;;;17.24;100.00
12879;BME280;20617;49.476;10.986;2023-06-10T04:18:27;98006.91;;;17.15;100.00
12879;BME280;20617;49.476;10.986;2023-06-10T04:20:37;98006.59;;;17.07;100.00
12879;BME280;20617;49.476;10.986;2023-06-10T04:22:43;98007.91;;;17.02;100.00
12879;BME280;20617;49.476;10.986;2023-06-10T04:24:49;98014.84;;;17.03;100.00
12879;BME280;20617;49.476;10.986;2023-06-10T04:26:57;98011.78;;;17.09;100.00
12879;BME280;20617;49.476;10.986;2023-06-10T04:29:02;98010.03;;;17.20;100.00
12879;BME280;20617;49.476;10.986;2023-06-10T04:31:07;98012.00;;;17.30;100.00
12879;BME280;20617;49.476;10.986;2023-06-10T04:33:13;98010.47;;;17.38;100.00
12879;BME280;20617;49.476;10.986;2023-06-10T04:35:18;98010.75;;;17.47;100.00
12879;BME280;20617;49.476;10.986;2023-06-10T04:37:23;98006.69;;;17.42;100.00
12879;BME280;20617;49.476;10.986;2023-06-10T04:39:28;98004.53;;;17.48;100.00
12879;BME280;20617;49.476;10.986;2023-06-10T04:41:35;98003.00;;;17.56;100.00
12879;BME280;20617;49.476;10.986;2023-06-10T04:43:43;97999.81;;;17.64;100.00
12879;BME280;20617;49.476;10.986;2023-06-10T04:45:49;97994.06;;;17.70;100.00
12879;BME280;20617;49.476;10.986;2023-06-10T04:47:54;98000.28;;;17.58;100.00
12879;BME280;20617;49.476;10.986;2023-06-10T04:50:00;97996.66;;;17.59;100.00
12879;BME280;20617;49.476;10.986;2023-06-10T04:52:07;98001.97;;;17.70;100.00
12879;BME280;20617;49.476;10.986;2023-06-10T04:54:15;98003.22;;;17.77;100.00
12879;BME280;20617;49.476;10.986;2023-06-10T04:56:20;98002.03;;;17.81;100.00
12879;BME280;20617;49.476;10.986;2023-06-10T04:58:25;98003.72;;;17.82;100.00
12879;BME280;20617;49.476;10.986;2023-06-10T05:00:32;98001.47;;;17.89;100.00
12879;BME280;20617;49.476;10.986;2023-06-10T05:02:37;98002.16;;;17.91;100.00
12879;BME280;20617;49.476;10.986;2023-06-10T05:04:42;98005.41;;;17.95;100.00
12879;BME280;20617;49.476;10.986;2023-06-10T05:06:47;98002.91;;;17.93;100.00
12879;BME280;20617;49.476;10.986;2023-06-10T05:08:52;97999.78;;;17.88;100.00
12879;BME280;20617;49.476;10.986;2023-06-10T05:10:57;98004.69;;;17.93;100.00
12879;BME280;20617;49.476;10.986;2023-06-10T05:13:02;98004.09;;;18.00;100.00
12879;BME280;20617;49.476;10.986;2023-06-10T05:15:08;97998.59;;;18.03;100.00
12879;BME280;20617;49.476;10.986;2023-06-10T05:17:16;98001.84;;;18.07;100.00
12879;BME280;20617;49.476;10.986;2023-06-10T05:19:21;98004.47;;;17.96;100.00
12879;BME280;20617;49.476;10.986;2023-06-10T05:21:26;97999.78;;;17.99;100.00
12879;BME280;20617;49.476;10.986;2023-06-10T05:23:31;98006.50;;;18.15;100.00
12879;BME280;20617;49.476;10.986;2023-06-10T05:25:36;98001.63;;;18.21;100.00
12879;BME280;20617;49.476;10.986;2023-06-10T05:27:41;98015.50;;;18.35;100.00
12879;BME280;20617;49.476;10.986;2023-06-10T05:29:46;98006.19;;;18.42;100.00
12879;BME280;20617;49.476;10.986;2023-06-10T05:31:51;98014.56;;;18.47;100.00
12879;BME280;20617;49.476;10.986;2023-06-10T05:34:01;98012.31;;;18.53;100.00
12879;BME280;20617;49.476;10.986;2023-06-10T05:36:06;98010.34;;;18.55;100.00
12879;BME280;20617;49.476;10.986;2023-06-10T05:38:11;98016.00;;;18.62;100.00
12879;BME280;20617;49.476;10.986;2023-06-10T05:40:16;98020.91;;;18.67;100.00
12879;BME280;20617;49.476;10.986;2023-06-10T05:42:21;98021.63;;;18.69;100.00
12879;BME280;20617;49.476;10.986;2023-06-10T05:44:26;98034.31;;;18.64;100.00
12879;BME280;20617;49.476;10.986;2023-06-10T05:46:31;98023.19;;;18.71;100.00
12879;BME280;20617;49.476;10.986;2023-06-10T05:48:36;98030.66;;;18.77;100.00
12879;BME280;20617;49.476;10.986;2023-06-10T05:50:43;98032.56;;;18.75;100.00
12879;BME280;20617;49.476;10.986;2023-06-10T05:52:50;98030.50;;;18.79;100.00
12879;BME280;20617;49.476;10.986;2023-06-10T05:54:56;98021.50;;;18.82;100.00
12879;BME280;20617;49.476;10.986;2023-06-10T05:57:02;98022.00;;;18.87;100.00
12879;BME280;20617;49.476;10.986;2023-06-10T05:59:07;98024.88;;;18.84;100.00
12879;BME280;20617;49.476;10.986;2023-06-10T06:01:12;98015.28;;;18.83;100.00
12879;BME280;20617;49.476;10.986;2023-06-10T06:03:17;98020.94;;;18.78;100.00
12879;BME280;20617;49.476;10.986;2023-06-10T06:05:22;98020.56;;;18.94;100.00
12879;BME280;20617;49.476;10.986;2023-06-10T06:07:30;98016.69;;;19.09;100.00
12879;BME280;20617;49.476;10.986;2023-06-10T06:09:35;98018.72;;;19.17;100.00
12879;BME280;20617;49.476;10.986;2023-06-10T06:11:41;98020.22;;;19.31;100.00
12879;BME280;20617;49.476;10.986;2023-06-10T06:13:46;98012.00;;;19.45;100.00
12879;BME280;20617;49.476;10.986;2023-06-10T06:15:54;98013.47;;;19.38;100.00
12879;BME280;20617;49.476;10.986;2023-06-10T06:17:59;98013.56;;;19.48;100.00
12879;BME280;20617;49.476;10.986;2023-06-10T06:20:05;98015.16;;;19.60;100.00
12879;BME280;20617;49.476;10.986;2023-06-10T06:22:10;98014.31;;;19.71;100.00
12879;BME280;20617;49.476;10.986;2023-06-10T06:24:18;98010.66;;;19.83;100.00
12879;BME280;20617;49.476;10.986;2023-06-10T06:26:23;98012.97;;;19.97;100.00
12879;BME280;20617;49.476;10.986;2023-06-10T06:28:28;98012.69;;;20.00;100.00
12879;BME280;20617;49.476;10.986;2023-06-10T06:30:33;98009.94;;;20.02;100.00
12879;BME280;20617;49.476;10.986;2023-06-10T06:32:38;98011.22;;;20.07;100.00
12879;BME280;20617;49.476;10.986;2023-06-10T06:34:43;98014.81;;;20.06;100.00
12879;BME280;20617;49.476;10.986;2023-06-10T06:36:48;98014.00;;;20.06;100.00
12879;BME280;20617;49.476;10.986;2023-06-10T06:38:53;98010.44;;;20.17;100.00
12879;BME280;20617;49.476;10.986;2023-06-10T06:41:04;98014.09;;;20.25;100.00
12879;BME280;20617;49.476;10.986;2023-06-10T06:43:09;98008.75;;;20.37;100.00
12879;BME280;20617;49.476;10.986;2023-06-10T06:45:49;98000.66;;;20.38;100.00
12879;BME280;20617;49.476;10.986;2023-06-10T06:47:54;98005.00;;;20.39;100.00
12879;BME280;20617;49.476;10.986;2023-06-10T06:50:00;98008.28;;;20.52;100.00
12879;BME280;20617;49.476;10.986;2023-06-10T06:52:06;98007.38;;;20.73;100.00
12879;BME280;20617;49.476;10.986;2023-06-10T06:54:11;98010.47;;;20.88;100.00
12879;BME280;20617;49.476;10.986;2023-06-10T06:56:18;98008.13;;;20.94;100.00
12879;BME280;20617;49.476;10.986;2023-06-10T06:58:23;98000.75;;;20.98;100.00
12879;BME280;20617;49.476;10.986;2023-06-10T07:00:28;98003.41;;;21.08;100.00
12879;BME280;20617;49.476;10.986;2023-06-10T07:02:33;97997.72;;;21.22;100.00
12879;BME280;20617;49.476;10.986;2023-06-10T07:04:38;98007.47;;;21.21;100.00
12879;BME280;20617;49.476;10.986;2023-06-10T07:06:43;98004.13;;;21.29;100.00
12879;BME280;20617;49.476;10.986;2023-06-10T07:08:49;97999.72;;;21.39;100.00
12879;BME280;20617;49.476;10.986;2023-06-10T07:10:54;98003.19;;;21.40;100.00
12879;BME280;20617;49.476;10.986;2023-06-10T07:13:02;98003.28;;;21.29;100.00
12879;BME280;20617;49.476;10.986;2023-06-10T07:15:08;98003.47;;;21.46;100.00
12879;BME280;20617;49.476;10.986;2023-06-10T07:17:13;98002.78;;;21.64;100.00
12879;BME280;20617;49.476;10.986;2023-06-10T07:19:19;98004.16;;;21.78;100.00
12879;BME280;20617;49.476;10.986;2023-06-10T07:21:24;98002.91;;;21.72;100.00
12879;BME280;20617;49.476;10.986;2023-06-10T07:23:30;98000.06;;;21.93;100.00
12879;BME280;20617;49.476;10.986;2023-06-10T07:25:35;98000.09;;;22.03;100.00
12879;BME280;20617;49.476;10.986;2023-06-10T07:27:40;98002.97;;;22.09;100.00
12879;BME280;20617;49.476;10.986;2023-06-10T07:29:48;98008.53;;;22.16;100.00
12879;BME280;20617;49.476;10.986;2023-06-10T07:31:53;98001.03;;;22.21;100.00
12879;BME280;20617;49.476;10.986;2023-06-10T07:33:57;98005.50;;;22.21;100.00
12879;BME280;20617;49.476;10.986;2023-06-10T07:36:03;98007.25;;;22.40;100.00
12879;BME280;20617;49.476;10.986;2023-06-10T07:38:08;98006.00;;;22.44;100.00
12879;BME280;20617;49.476;10.986;2023-06-10T07:40:12;98003.03;;;22.47;100.00
12879;BME280;20617;49.476;10.986;2023-06-10T07:42:17;97996.81;;;22.66;100.00
12879;BME280;20617;49.476;10.986;2023-06-10T07:44:22;98000.66;;;22.81;100.00
12879;BME280;20617;49.476;10.986;2023-06-10T07:46:30;97996.78;;;23.03;100.00
12879;BME280;20617;49.476;10.986;2023-06-10T07:48:35;97994.44;;;23.18;100.00
12879;BME280;20617;49.476;10.986;2023-06-10T07:50:40;97990.03;;;23.26;100.00
12879;BME280;20617;49.476;10.986;2023-06-10T07:52:45;97997.03;;;23.27;100.00
12879;BME280;20617;49.476;10.986;2023-06-10T07:54:49;98000.22;;;23.31;100.00
12879;BME280;20617;49.476;10.986;2023-06-10T07:56:55;98002.66;;;23.24;100.00
12879;BME280;20617;49.476;10.986;2023-06-10T07:58:59;97999.09;;;23.34;100.00
12879;BME280;20617;49.476;10.986;2023-06-10T08:01:04;97990.50;;;23.40;100.00
12879;BME280;20617;49.476;10.986;2023-06-10T08:03:12;97990.59;;;23.48;100.00
12879;BME280;20617;49.476;10.986;2023-06-10T08:05:17;97983.28;;;23.50;100.00
12879;BME280;20617;49.476;10.986;2023-06-10T08:07:22;97989.75;;;23.65;100.00
12879;BME280;20617;49.476;10.986;2023-06-10T08:09:27;97987.00;;;23.57;100.00
12879;BME280;20617;49.476;10.986;2023-06-10T08:11:32;97985.34;;;23.56;100.00
12879;BME280;20617;49.476;10.986;2023-06-10T08:13:37;97988.34;;;23.61;100.00
12879;BME280;20617;49.476;10.986;2023-06-10T08:15:42;97975.69;;;23.55;100.00
12879;BME280;20617;49.476;10.986;2023-06-10T08:17:49;97975.44;;;23.66;100.00
12879;BME280;20617;49.476;10.986;2023-06-10T08:19:57;97980.75;;;23.84;100.00
12879;BME280;20617;49.476;10.986;2023-06-10T08:22:02;97979.38;;;23.98;100.00
12879;BME280;20617;49.476;10.986;2023-06-10T08:24:09;97981.28;;;24.14;100.00
12879;BME280;20617;49.476;10.986;2023-06-10T08:26:14;97980.00;;;24.18;100.00
12879;BME280;20617;49.476;10.986;2023-06-10T08:28:18;97979.16;;;24.17;100.00
12879;BME280;20617;49.476;10.986;2023-06-10T08:30:23;97977.38;;;24.26;100.00
12879;BME280;20617;49.476;10.986;2023-06-10T08:32:29;97975.25;;;24.30;100.00
12879;BME280;20617;49.476;10.986;2023-06-10T08:34:34;97969.44;;;24.34;100.00
12879;BME280;20617;49.476;10.986;2023-06-10T08:36:43;97971.78;;;24.37;100.00
12879;BME280;20617;49.476;10.986;2023-06-10T08:38:48;97969.50;;;24.43;100.00
12879;BME280;20617;49.476;10.986;2023-06-10T08:40:56;97973.84;;;24.44;100.00
12879;BME280;20617;49.476;10.986;2023-06-10T08:43:06;97970.22;;;24.53;100.00
12879;BME280;20617;49.476;10.986;2023-06-10T08:45:16;97973.03;;;24.51;100.00
12879;BME280;20617;49.476;10.986;2023-06-10T08:47:23;97975.00;;;24.49;100.00
12879;BME280;20617;49.476;10.986;2023-06-10T08:49:30;97970.75;;;24.56;100.00
12879;BME280;20617;49.476;10.986;2023-06-10T08:51:42;97974.94;;;24.67;100.00
12879;BME280;20617;49.476;10.986;2023-06-10T08:53:52;97971.13;;;24.78;100.00
12879;BME280;20617;49.476;10.986;2023-06-10T08:55:59;97971.78;;;24.72;100.00
12879;BME280;20617;49.476;10.986;2023-06-10T08:58:04;97974.84;;;24.85;100.00
12879;BME280;20617;49.476;10.986;2023-06-10T09:00:10;97971.47;;;24.75;98.89
12879;BME280;20617;49.476;10.986;2023-06-10T09:02:15;97962.53;;;24.92;99.93
12879;BME280;20617;49.476;10.986;2023-06-10T09:04:24;97972.53;;;24.98;98.98
12879;BME280;20617;49.476;10.986;2023-06-10T09:06:30;97963.72;;;25.06;97.97
12879;BME280;20617;49.476;10.986;2023-06-10T09:08:41;97960.28;;;25.14;98.55
12879;BME280;20617;49.476;10.986;2023-06-10T09:10:47;97962.44;;;25.18;97.71
12879;BME280;20617;49.476;10.986;2023-06-10T09:12:52;97965.78;;;25.20;98.36
12879;BME280;20617;49.476;10.986;2023-06-10T09:14:57;97956.66;;;25.31;98.08
12879;BME280;20617;49.476;10.986;2023-06-10T09:17:05;97960.13;;;25.48;97.93
12879;BME280;20617;49.476;10.986;2023-06-10T09:19:11;97964.97;;;25.52;98.41
12879;BME280;20617;49.476;10.986;2023-06-10T09:21:16;97956.50;;;25.57;96.02
12879;BME280;20617;49.476;10.986;2023-06-10T09:23:21;97956.50;;;25.57;96.21
12879;BME280;20617;49.476;10.986;2023-06-10T09:25:37;97959.66;;;25.69;97.12
12879;BME280;20617;49.476;10.986;2023-06-10T09:27:47;97960.00;;;25.82;97.67
12879;BME280;20617;49.476;10.986;2023-06-10T09:29:56;97952.16;;;25.89;97.49
12879;BME280;20617;49.476;10.986;2023-06-10T09:32:02;97954.16;;;25.95;95.23
12879;BME280;20617;49.476;10.986;2023-06-10T09:34:12;97958.31;;;25.97;96.54
12879;BME280;20617;49.476;10.986;2023-06-10T09:36:22;97960.13;;;26.05;97.39
12879;BME280;20617;49.476;10.986;2023-06-10T09:38:30;97958.41;;;26.20;95.97
12879;BME280;20617;49.476;10.986;2023-06-10T09:40:48;97957.94;;;26.17;94.07
12879;BME280;20617;49.476;10.986;2023-06-10T09:42:55;97959.56;;;26.26;95.13
12879;BME280;20617;49.476;10.986;2023-06-10T09:45:01;97960.88;;;26.38;95.45
12879;BME280;20617;49.476;10.986;2023-06-10T09:47:06;97953.50;;;26.49;94.57
12879;BME280;20617;49.476;10.986;2023-06-10T09:49:11;97953.19;;;26.43;93.27
12879;BME280;20617;49.476;10.986;2023-06-10T09:51:16;97969.16;;;26.60;94.42
12879;BME280;20617;49.476;10.986;2023-06-10T09:53:21;97969.41;;;26.81;93.06
12879;BME280;20617;49.476;10.986;2023-06-10T09:55:26;97959.50;;;26.90;91.52
12879;BME280;20617;49.476;10.986;2023-06-10T09:57:34;97958.31;;;26.93;91.50
12879;BME280;20617;49.476;10.986;2023-06-10T09:59:41;97960.00;;;26.94;90.17
12879;BME280;20617;49.476;10.986;2023-06-10T10:01:54;97962.09;;;27.06;89.05
12879;BME280;20617;49.476;10.986;2023-06-10T10:04:00;97956.38;;;27.18;89.16
12879;BME280;20617;49.476;10.986;2023-06-10T10:06:05;97959.06;;;27.09;88.61
12879;BME280;20617;49.476;10.986;2023-06-10T10:08:10;97951.91;;;27.02;89.01
12879;BME280;20617;49.476;10.986;2023-06-10T10:10:16;97967.47;;;26.98;88.52
12879;BME280;20617;49.476;10.986;2023-06-10T10:12:22;97967.47;;;26.98;88.95
12879;BME280;20617;49.476;10.986;2023-06-10T10:14:32;97961.53;;;26.88;89.10
12879;BME280;20617;49.476;10.986;2023-06-10T10:16:40;97962.97;;;26.68;91.42
12879;BME280;20617;49.476;10.986;2023-06-10T10:18:51;97954.25;;;26.74;90.93
12879;BME280;20617;49.476;10.986;2023-06-10T10:21:01;97958.91;;;26.80;90.72
12879;BME280;20617;49.476;10.986;2023-06-10T10:23:12;97961.00;;;26.93;90.39
12879;BME280;20617;49.476;10.986;2023-06-10T10:25:23;97960.13;;;27.00;87.85
12879;BME280;20617;49.476;10.986;2023-06-10T10:27:33;97953.66;;;27.26;86.75
12879;BME280;20617;49.476;10.986;2023-06-10T10:29:45;97955.81;;;27.45;84.31
12879;BME280;20617;49.476;10.986;2023-06-10T10:31:51;97948.97;;;27.66;83.87
12879;BME280;20617;49.476;10.986;2023-06-10T10:33:58;97948.41;;;27.79;81.92
12879;BME280;20617;49.476;10.986;2023-06-10T10:36:05;97951.53;;;27.82;82.17
12879;BME280;20617;49.476;10.986;2023-06-10T10:38:11;97948.88;;;27.82;83.55
12879;BME280;20617;49.476;10.986;2023-06-10T10:40:16;97943.97;;;27.86;82.69
12879;BME280;20617;49.476;10.986;2023-06-10T10:42:22;97939.28;;;27.88;82.54
12879;BME280;20617;49.476;10.986;2023-06-10T10:44:28;97937.53;;;27.95;81.90
12879;BME280;20617;49.476;10.986;2023-06-10T10:46:42;97944.25;;;27.91;80.24
12879;BME280;20617;49.476;10.986;2023-06-10T10:48:52;97939.94;;;27.67;82.24
12879;BME280;20617;49.476;10.986;2023-06-10T10:50:58;97943.06;;;27.56;83.25
12879;BME280;20617;49.476;10.986;2023-06-10T10:53:04;97944.91;;;27.55;84.60
12879;BME280;20617;49.476;10.986;2023-06-10T10:55:12;97951.25;;;27.54;84.74